createdAt,value
2023-01-21T00:00:41.981Z,-2.69
2023-01-21T00:01:41.347Z,-2.66
2023-01-21T00:02:41.303Z,-2.69
2023-01-21T00:03:41.388Z,-2.68
2023-01-21T00:04:41.283Z,-2.66
2023-01-21T00:05:41.295Z,-2.65
2023-01-21T00:06:41.294Z,-2.64
2023-01-21T00:07:41.273Z,-2.62
2023-01-21T00:08:41.251Z,-2.61
2023-01-21T00:09:41.255Z,-2.62
2023-01-21T00:10:41.229Z,-2.62
2023-01-21T00:11:41.245Z,-2.64
2023-01-21T00:12:41.223Z,-2.62
2023-01-21T00:13:41.191Z,-2.61
2023-01-21T00:14:41.215Z,-2.62
2023-01-21T00:15:41.235Z,-2.61
2023-01-21T00:16:41.187Z,-2.56
2023-01-21T00:17:41.168Z,-2.55
2023-01-21T00:18:41.171Z,-2.53
2023-01-21T00:19:41.150Z,-2.56
2023-01-21T00:20:41.158Z,-2.55
2023-01-21T00:21:41.170Z,-2.56
2023-01-21T00:22:41.116Z,-2.64
2023-01-21T00:23:41.108Z,-2.61
2023-01-21T00:24:41.088Z,-2.64
2023-01-21T00:25:41.095Z,-2.64
2023-01-21T00:26:41.167Z,-2.64
2023-01-21T00:27:41.054Z,-2.71
2023-01-21T00:28:41.063Z,-2.71
2023-01-21T00:29:41.035Z,-2.72
2023-01-21T00:30:41.136Z,-2.69
2023-01-21T00:31:41.170Z,-2.72
2023-01-21T00:32:41.015Z,-2.74
2023-01-21T00:33:40.999Z,-2.77
2023-01-21T00:34:40.987Z,-2.76
2023-01-21T00:35:41.019Z,-2.77
2023-01-21T00:36:40.980Z,-2.74
2023-01-21T00:37:40.963Z,-2.72
2023-01-21T00:38:40.962Z,-2.71
2023-01-21T00:39:40.930Z,-2.68
2023-01-21T00:40:40.923Z,-2.68
2023-01-21T00:41:40.948Z,-2.68
2023-01-21T00:42:40.905Z,-2.69
2023-01-21T00:43:40.899Z,-2.72
2023-01-21T00:44:40.892Z,-2.72
2023-01-21T00:45:40.870Z,-2.71
2023-01-21T00:46:40.991Z,-2.69
2023-01-21T00:47:40.893Z,-2.69
2023-01-21T00:48:40.853Z,-2.69
2023-01-21T00:49:40.832Z,-2.71
2023-01-21T00:50:40.825Z,-2.80
2023-01-21T00:51:40.838Z,-2.79
2023-01-21T00:52:40.818Z,-2.80
2023-01-21T00:53:40.817Z,-2.84
2023-01-21T00:54:40.803Z,-2.84
2023-01-21T00:55:40.779Z,-2.83
2023-01-21T00:56:40.782Z,-2.83
2023-01-21T00:57:40.757Z,-2.80
2023-01-21T00:58:40.749Z,-2.82
2023-01-21T00:59:40.748Z,-2.83
2023-01-21T01:00:40.736Z,-2.82
2023-01-21T01:01:40.900Z,-2.93
2023-01-21T01:02:40.717Z,-2.95
2023-01-21T01:03:40.688Z,-2.93
2023-01-21T01:04:40.687Z,-2.90
2023-01-21T01:05:40.667Z,-2.94
2023-01-21T01:06:40.692Z,-2.90
2023-01-21T01:07:40.649Z,-2.90
2023-01-21T01:08:40.670Z,-2.89
2023-01-21T01:09:40.627Z,-2.86
2023-01-21T01:10:40.655Z,-2.86
2023-01-21T01:11:40.631Z,-2.83
2023-01-21T01:12:40.605Z,-2.82
2023-01-21T01:13:40.599Z,-2.83
2023-01-21T01:14:40.585Z,-2.82
2023-01-21T01:15:40.619Z,-2.84
2023-01-21T01:16:40.592Z,-2.84
2023-01-21T01:17:40.560Z,-2.89
2023-01-21T01:18:40.553Z,-2.86
2023-01-21T01:19:40.530Z,-2.87
2023-01-21T01:20:40.525Z,-2.90
2023-01-21T01:21:40.525Z,-2.94
2023-01-21T01:22:40.506Z,-2.87
2023-01-21T01:23:40.486Z,-2.93
2023-01-21T01:24:40.498Z,-2.90
2023-01-21T01:25:40.494Z,-2.87
2023-01-21T01:26:42.113Z,-2.89
2023-01-21T01:27:40.459Z,-2.90
2023-01-21T01:28:40.441Z,-2.87
2023-01-21T01:29:40.422Z,-2.93
2023-01-21T01:30:40.524Z,-2.95
2023-01-21T01:31:40.485Z,-2.97
2023-01-21T01:32:40.401Z,-3.00
2023-01-21T01:33:40.387Z,-3.00
2023-01-21T01:34:40.393Z,-3.02
2023-01-21T01:35:40.369Z,-3.04
2023-01-21T01:36:40.392Z,-3.01
2023-01-21T01:37:40.368Z,-2.98
2023-01-21T01:38:40.350Z,-2.97
2023-01-21T01:39:40.326Z,-2.97
2023-01-21T01:40:40.346Z,-3.01
2023-01-21T01:41:40.331Z,-3.05
2023-01-21T01:42:40.316Z,-3.04
2023-01-21T01:43:40.306Z,-3.05
2023-01-21T01:44:40.280Z,-3.01
2023-01-21T01:45:40.277Z,-2.98
2023-01-21T01:46:40.355Z,-2.98
2023-01-21T01:47:40.264Z,-2.98
2023-01-21T01:48:40.241Z,-2.98
2023-01-21T01:49:40.221Z,-2.98
2023-01-21T01:50:40.221Z,-3.00
2023-01-21T01:51:40.243Z,-3.02
2023-01-21T01:52:40.199Z,-3.01
2023-01-21T01:53:40.184Z,-3.00
2023-01-21T01:54:40.204Z,-3.00
2023-01-21T01:55:40.165Z,-3.01
2023-01-21T01:56:40.164Z,-3.10
2023-01-21T01:57:40.183Z,-3.16
2023-01-21T01:58:40.144Z,-3.18
2023-01-21T01:59:40.130Z,-3.23
2023-01-21T02:00:40.150Z,-3.25
2023-01-21T02:01:40.179Z,-3.23
2023-01-21T02:02:40.177Z,-3.18
2023-01-21T02:03:40.088Z,-3.16
2023-01-21T02:04:40.096Z,-3.19
2023-01-21T02:05:40.074Z,-3.19
2023-01-21T02:06:40.066Z,-3.12
2023-01-21T02:07:40.100Z,-3.12
2023-01-21T02:08:40.037Z,-3.08
2023-01-21T02:09:40.041Z,-3.05
2023-01-21T02:10:40.023Z,-3.07
2023-01-21T02:11:40.034Z,-3.07
2023-01-21T02:12:40.028Z,-3.15
2023-01-21T02:13:39.995Z,-3.08
2023-01-21T02:14:39.984Z,-3.08
2023-01-21T02:15:39.964Z,-3.04
2023-01-21T02:16:39.962Z,-3.01
2023-01-21T02:17:39.967Z,-3.01
2023-01-21T02:18:39.950Z,-3.02
2023-01-21T02:19:39.934Z,-3.04
2023-01-21T02:20:39.921Z,-3.07
2023-01-21T02:21:39.917Z,-3.12
2023-01-21T02:22:39.926Z,-3.15
2023-01-21T02:23:39.900Z,-3.13
2023-01-21T02:24:39.884Z,-3.12
2023-01-21T02:25:39.869Z,-3.12
2023-01-21T02:26:39.896Z,-3.12
2023-01-21T02:27:39.872Z,-3.12
2023-01-21T02:28:39.839Z,-3.12
2023-01-21T02:29:39.829Z,-3.12
2023-01-21T02:30:39.838Z,-3.12
2023-01-21T02:31:39.859Z,-3.10
2023-01-21T02:32:39.842Z,-3.10
2023-01-21T02:33:39.795Z,-3.08
2023-01-21T02:34:39.785Z,-3.10
2023-01-21T02:35:39.765Z,-3.12
2023-01-21T02:36:39.776Z,-3.13
2023-01-21T02:37:39.765Z,-3.13
2023-01-21T02:38:39.746Z,-3.13
2023-01-21T02:39:39.737Z,-3.13
2023-01-21T02:40:39.736Z,-3.15
2023-01-21T02:41:39.705Z,-3.22
2023-01-21T02:42:39.764Z,-3.22
2023-01-21T02:43:39.708Z,-3.21
2023-01-21T02:44:39.685Z,-3.21
2023-01-21T02:45:39.667Z,-3.21
2023-01-21T02:46:39.769Z,-3.16
2023-01-21T02:47:39.672Z,-3.19
2023-01-21T02:48:39.647Z,-3.19
2023-01-21T02:49:39.641Z,-3.28
2023-01-21T02:50:39.620Z,-3.23
2023-01-21T02:51:39.619Z,-3.19
2023-01-21T02:52:39.629Z,-3.21
2023-01-21T02:53:39.616Z,-3.22
2023-01-21T02:54:39.590Z,-3.21
2023-01-21T02:55:41.344Z,-3.19
2023-01-21T02:56:39.572Z,-3.12
2023-01-21T02:57:39.567Z,-3.08
2023-01-21T02:58:39.540Z,-3.05
2023-01-21T02:59:39.536Z,-3.05
2023-01-21T03:00:39.558Z,-3.08
2023-01-21T03:01:39.560Z,-3.08
2023-01-21T03:02:39.580Z,-3.08
2023-01-21T03:03:41.305Z,-3.08
2023-01-21T03:04:39.500Z,-3.07
2023-01-21T03:05:39.483Z,-3.07
2023-01-21T03:06:39.466Z,-3.10
2023-01-21T03:07:39.470Z,-3.15
2023-01-21T03:08:39.449Z,-3.13
2023-01-21T03:09:39.435Z,-3.16
2023-01-21T03:10:39.416Z,-3.16
2023-01-21T03:11:39.411Z,-3.18
2023-01-21T03:12:39.417Z,-3.21
2023-01-21T03:13:39.420Z,-3.18
2023-01-21T03:14:39.380Z,-3.15
2023-01-21T03:15:39.375Z,-3.15
2023-01-21T03:16:39.463Z,-3.21
2023-01-21T03:17:39.374Z,-3.18
2023-01-21T03:18:39.333Z,-3.15
2023-01-21T03:19:39.335Z,-3.13
2023-01-21T03:20:39.317Z,-3.15
2023-01-21T03:21:39.312Z,-3.16
2023-01-21T03:22:39.319Z,-3.16
2023-01-21T03:23:39.301Z,-3.12
2023-01-21T03:24:39.295Z,-3.07
2023-01-21T03:25:39.283Z,-3.08
2023-01-21T03:26:39.257Z,-3.08
2023-01-21T03:27:39.267Z,-3.05
2023-01-21T03:28:39.251Z,-3.10
2023-01-21T03:29:39.247Z,-3.08
2023-01-21T03:30:39.251Z,-3.07
2023-01-21T03:31:39.253Z,-3.10
2023-01-21T03:32:39.211Z,-3.13
2023-01-21T03:33:39.201Z,-3.10
2023-01-21T03:34:39.173Z,-3.13
2023-01-21T03:35:39.184Z,-3.12
2023-01-21T03:36:39.188Z,-3.15
2023-01-21T03:37:39.180Z,-3.10
2023-01-21T03:38:39.142Z,-3.05
2023-01-21T03:39:39.136Z,-3.08
2023-01-21T03:40:39.119Z,-3.10
2023-01-21T03:41:39.120Z,-3.05
2023-01-21T03:42:39.136Z,-3.05
2023-01-21T03:43:39.093Z,-3.00
2023-01-21T03:44:39.079Z,-2.93
2023-01-21T03:45:39.099Z,-2.90
2023-01-21T03:46:39.056Z,-2.93
2023-01-21T03:47:39.084Z,-2.94
2023-01-21T03:48:39.043Z,-2.89
2023-01-21T03:49:39.037Z,-2.83
2023-01-21T03:50:39.054Z,-2.80
2023-01-21T03:51:39.025Z,-2.79
2023-01-21T03:52:39.023Z,-2.79
2023-01-21T03:53:38.996Z,-2.82
2023-01-21T03:54:38.992Z,-2.79
2023-01-21T03:55:38.967Z,-2.74
2023-01-21T03:56:38.953Z,-2.71
2023-01-21T03:57:38.970Z,-2.66
2023-01-21T03:58:38.947Z,-2.64
2023-01-21T03:59:38.941Z,-2.58
2023-01-21T04:00:38.960Z,-2.58
2023-01-21T04:01:38.909Z,-2.55
2023-01-21T04:02:38.924Z,-2.53
2023-01-21T04:03:38.902Z,-2.50
2023-01-21T04:04:38.875Z,-2.47
2023-01-21T04:05:38.871Z,-2.44
2023-01-21T04:06:38.860Z,-2.43
2023-01-21T04:07:38.904Z,-2.40
2023-01-21T04:08:38.842Z,-2.38
2023-01-21T04:09:38.837Z,-2.35
2023-01-21T04:10:38.834Z,-2.29
2023-01-21T04:11:38.810Z,-2.26
2023-01-21T04:12:38.829Z,-2.21
2023-01-21T04:13:38.794Z,-2.19
2023-01-21T04:14:38.773Z,-2.11
2023-01-21T04:15:38.769Z,-2.11
2023-01-21T04:16:38.799Z,-2.08
2023-01-21T04:17:38.769Z,-2.04
2023-01-21T04:18:38.767Z,-2.03
2023-01-21T04:19:38.735Z,-2.04
2023-01-21T04:20:38.732Z,-1.98
2023-01-21T04:21:38.719Z,-1.98
2023-01-21T04:22:38.732Z,-1.98
2023-01-21T04:23:38.703Z,-1.96
2023-01-21T04:24:38.690Z,-1.96
2023-01-21T04:25:38.698Z,-1.93
2023-01-21T04:26:38.654Z,-1.90
2023-01-21T04:27:38.681Z,-1.92
2023-01-21T04:28:38.637Z,-1.88
2023-01-21T04:29:38.627Z,-1.86
2023-01-21T04:30:38.699Z,-1.85
2023-01-21T04:31:38.657Z,-1.82
2023-01-21T04:32:38.614Z,-1.78
2023-01-21T04:33:38.585Z,-1.80
2023-01-21T04:34:38.608Z,-1.78
2023-01-21T04:35:38.566Z,-1.74
2023-01-21T04:36:38.566Z,-1.75
2023-01-21T04:37:38.565Z,-1.72
2023-01-21T04:38:38.539Z,-1.71
2023-01-21T04:39:38.570Z,-1.71
2023-01-21T04:40:38.531Z,-1.68
2023-01-21T04:41:38.502Z,-1.68
2023-01-21T04:42:38.545Z,-1.67
2023-01-21T04:43:38.481Z,-1.67
2023-01-21T04:44:38.485Z,-1.64
2023-01-21T04:45:38.490Z,-1.62
2023-01-21T04:46:38.458Z,-1.59
2023-01-21T04:47:38.468Z,-1.57
2023-01-21T04:48:38.437Z,-1.56
2023-01-21T04:49:38.424Z,-1.54
2023-01-21T04:50:38.413Z,-1.56
2023-01-21T04:51:38.392Z,-1.53
2023-01-21T04:52:38.385Z,-1.50
2023-01-21T04:53:38.390Z,-1.50
2023-01-21T04:54:38.371Z,-1.49
2023-01-21T04:55:38.361Z,-1.47
2023-01-21T04:56:38.354Z,-1.46
2023-01-21T04:57:38.348Z,-1.46
2023-01-21T04:58:38.338Z,-1.43
2023-01-21T04:59:38.318Z,-1.43
2023-01-21T05:00:38.311Z,-1.41
2023-01-21T05:01:38.305Z,-1.39
2023-01-21T05:02:38.320Z,-1.39
2023-01-21T05:03:38.323Z,-1.39
2023-01-21T05:04:38.273Z,-1.36
2023-01-21T05:05:38.258Z,-1.36
2023-01-21T05:06:38.287Z,-1.35
2023-01-21T05:07:38.248Z,-1.32
2023-01-21T05:08:38.254Z,-1.32
2023-01-21T05:09:38.229Z,-1.33
2023-01-21T05:10:38.214Z,-1.33
2023-01-21T05:11:38.200Z,-1.35
2023-01-21T05:12:38.203Z,-1.35
2023-01-21T05:13:38.238Z,-1.32
2023-01-21T05:14:38.174Z,-1.31
2023-01-21T05:15:38.228Z,-1.31
2023-01-21T05:16:38.176Z,-1.29
2023-01-21T05:17:38.164Z,-1.29
2023-01-21T05:18:38.152Z,-1.29
2023-01-21T05:19:38.113Z,-1.28
2023-01-21T05:20:38.112Z,-1.26
2023-01-21T05:21:38.095Z,-1.29
2023-01-21T05:22:38.089Z,-1.26
2023-01-21T05:23:38.097Z,-1.28
2023-01-21T05:24:38.073Z,-1.25
2023-01-21T05:25:38.053Z,-1.23
2023-01-21T05:26:38.064Z,-1.25
2023-01-21T05:27:38.046Z,-1.25
2023-01-21T05:28:38.053Z,-1.23
2023-01-21T05:29:38.019Z,-1.20
2023-01-21T05:30:40.429Z,-1.21
2023-01-21T05:31:38.279Z,-1.21
2023-01-21T05:32:37.993Z,-1.20
2023-01-21T05:33:37.999Z,-1.21
2023-01-21T05:34:37.969Z,-1.21
2023-01-21T05:35:37.968Z,-1.20
2023-01-21T05:36:37.954Z,-1.20
2023-01-21T05:37:37.930Z,-1.20
2023-01-21T05:38:37.960Z,-1.17
2023-01-21T05:39:37.943Z,-1.20
2023-01-21T05:40:37.908Z,-1.20
2023-01-21T05:41:37.904Z,-1.20
2023-01-21T05:42:37.914Z,-1.18
2023-01-21T05:43:37.891Z,-1.21
2023-01-21T05:44:37.892Z,-1.17
2023-01-21T05:45:37.866Z,-1.15
2023-01-21T05:46:37.844Z,-1.17
2023-01-21T05:47:37.826Z,-1.17
2023-01-21T05:48:37.859Z,-1.15
2023-01-21T05:49:37.838Z,-1.15
2023-01-21T05:50:37.813Z,-1.18
2023-01-21T05:51:37.799Z,-1.15
2023-01-21T05:52:37.795Z,-1.17
2023-01-21T05:53:37.807Z,-1.14
2023-01-21T05:54:37.809Z,-1.15
2023-01-21T05:55:37.746Z,-1.14
2023-01-21T05:56:37.740Z,-1.14
2023-01-21T05:57:37.761Z,-1.14
2023-01-21T05:58:37.740Z,-1.11
2023-01-21T05:59:37.737Z,-1.13
2023-01-21T06:00:37.701Z,-1.13
2023-01-21T06:01:37.684Z,-1.11
2023-01-21T06:02:37.779Z,-1.11
2023-01-21T06:03:37.738Z,-1.11
2023-01-21T06:04:37.671Z,-1.08
2023-01-21T06:05:37.645Z,-1.11
2023-01-21T06:06:37.640Z,-1.10
2023-01-21T06:07:37.644Z,-1.11
2023-01-21T06:08:37.646Z,-1.08
2023-01-21T06:09:37.601Z,-1.10
2023-01-21T06:10:37.602Z,-1.08
2023-01-21T06:11:37.584Z,-1.10
2023-01-21T06:12:37.584Z,-1.10
2023-01-21T06:13:37.587Z,-1.08
2023-01-21T06:14:37.576Z,-1.08
2023-01-21T06:15:37.582Z,-1.07
2023-01-21T06:16:37.547Z,-1.08
2023-01-21T06:17:37.529Z,-1.07
2023-01-21T06:18:37.568Z,-1.07
2023-01-21T06:19:37.513Z,-1.05
2023-01-21T06:20:37.508Z,-1.07
2023-01-21T06:21:37.483Z,-1.03
2023-01-21T06:22:37.487Z,-1.03
2023-01-21T06:23:37.493Z,-1.07
2023-01-21T06:24:37.466Z,-1.03
2023-01-21T06:25:37.448Z,-1.05
2023-01-21T06:26:37.442Z,-1.03
2023-01-21T06:27:37.429Z,-1.03
2023-01-21T06:28:37.442Z,-1.03
2023-01-21T06:29:37.431Z,-1.00
2023-01-21T06:30:37.417Z,-1.05
2023-01-21T06:31:37.538Z,-1.03
2023-01-21T06:32:37.389Z,-1.02
2023-01-21T06:33:37.375Z,-1.02
2023-01-21T06:34:37.351Z,-1.03
2023-01-21T06:35:37.341Z,-1.00
2023-01-21T06:36:37.368Z,-0.99
2023-01-21T06:37:37.320Z,-0.99
2023-01-21T06:38:37.335Z,-0.99
2023-01-21T06:39:37.304Z,-0.97
2023-01-21T06:40:37.299Z,-0.97
2023-01-21T06:41:37.277Z,-0.99
2023-01-21T06:42:37.283Z,-0.97
2023-01-21T06:43:37.274Z,-0.97
2023-01-21T06:44:37.262Z,-0.95
2023-01-21T06:45:37.244Z,-0.96
2023-01-21T06:46:41.068Z,-0.96
2023-01-21T06:47:37.213Z,-0.96
2023-01-21T06:48:37.304Z,-0.95
2023-01-21T06:49:37.330Z,-0.96
2023-01-21T06:50:37.194Z,-0.95
2023-01-21T06:51:37.183Z,-0.93
2023-01-21T06:52:37.180Z,-0.95
2023-01-21T06:53:37.192Z,-0.93
2023-01-21T06:54:37.156Z,-0.92
2023-01-21T06:55:37.091Z,-0.93
2023-01-21T06:56:37.100Z,-0.93
2023-01-21T06:57:37.076Z,-0.92
2023-01-21T06:58:37.076Z,-0.92
2023-01-21T06:59:37.056Z,-0.92
2023-01-21T07:00:37.212Z,-0.92
2023-01-21T07:01:37.174Z,-0.96
2023-01-21T07:02:37.144Z,-0.95
2023-01-21T07:03:37.080Z,-0.93
2023-01-21T07:04:37.009Z,-0.95
2023-01-21T07:05:36.980Z,-0.95
2023-01-21T07:06:36.979Z,-0.93
2023-01-21T07:07:36.956Z,-0.93
2023-01-21T07:08:37.030Z,-0.93
2023-01-21T07:09:36.949Z,-0.93
2023-01-21T07:10:36.941Z,-0.93
2023-01-21T07:11:36.913Z,-0.93
2023-01-21T07:12:36.983Z,-0.92
2023-01-21T07:13:36.929Z,-0.90
2023-01-21T07:14:36.897Z,-0.90
2023-01-21T07:15:36.884Z,-0.93
2023-01-21T07:16:36.898Z,-0.92
2023-01-21T07:17:36.861Z,-0.92
2023-01-21T07:18:36.865Z,-0.89
2023-01-21T07:19:36.830Z,-0.86
2023-01-21T07:20:37.689Z,-0.89
2023-01-21T07:21:36.821Z,-0.89
2023-01-21T07:22:36.802Z,-0.89
2023-01-21T07:23:36.805Z,-0.83
2023-01-21T07:24:36.800Z,-0.85
2023-01-21T07:25:36.801Z,-0.86
2023-01-21T07:26:36.769Z,-0.85
2023-01-21T07:27:36.755Z,-0.85
2023-01-21T07:28:36.760Z,-0.86
2023-01-21T07:29:36.728Z,-0.83
2023-01-21T07:30:36.754Z,-0.85
2023-01-21T07:31:36.852Z,-0.81
2023-01-21T07:32:36.702Z,-0.81
2023-01-21T07:33:36.720Z,-0.81
2023-01-21T07:34:36.693Z,-0.81
2023-01-21T07:35:36.669Z,-0.80
2023-01-21T07:36:36.685Z,-0.78
2023-01-21T07:37:36.651Z,-0.78
2023-01-21T07:38:36.677Z,-0.80
2023-01-21T07:39:36.656Z,-0.78
2023-01-21T07:40:36.623Z,-0.80
2023-01-21T07:41:36.617Z,-0.77
2023-01-21T07:42:36.601Z,-0.81
2023-01-21T07:43:36.627Z,-0.81
2023-01-21T07:44:36.588Z,-0.81
2023-01-21T07:45:36.575Z,-0.83
2023-01-21T07:46:36.587Z,-0.81
2023-01-21T07:47:36.543Z,-0.83
2023-01-21T07:48:36.541Z,-0.80
2023-01-21T07:49:36.543Z,-0.77
2023-01-21T07:50:36.521Z,-0.80
2023-01-21T07:51:36.504Z,-0.78
2023-01-21T07:52:36.511Z,-0.78
2023-01-21T07:53:36.488Z,-0.77
2023-01-21T07:54:36.500Z,-0.77
2023-01-21T07:55:36.466Z,-0.77
2023-01-21T07:56:36.473Z,-0.76
2023-01-21T07:57:36.447Z,-0.78
2023-01-21T07:58:36.433Z,-0.77
2023-01-21T07:59:36.448Z,-0.76
2023-01-21T08:00:36.421Z,-0.76
2023-01-21T08:01:36.420Z,-0.76
2023-01-21T08:02:36.522Z,-0.77
2023-01-21T08:03:36.379Z,-0.76
2023-01-21T08:04:36.401Z,-0.76
2023-01-21T08:05:36.364Z,-0.74
2023-01-21T08:06:36.374Z,-0.74
2023-01-21T08:07:36.340Z,-0.74
2023-01-21T08:08:36.339Z,-0.77
2023-01-21T08:09:36.336Z,-0.74
2023-01-21T08:10:36.325Z,-0.71
2023-01-21T08:11:36.317Z,-0.73
2023-01-21T08:12:36.302Z,-0.71
2023-01-21T08:13:36.282Z,-0.71
2023-01-21T08:14:36.297Z,-0.70
2023-01-21T08:15:36.260Z,-0.71
2023-01-21T08:16:36.348Z,-0.70
2023-01-21T08:17:36.236Z,-0.67
2023-01-21T08:18:36.230Z,-0.67
2023-01-21T08:19:36.236Z,-0.68
2023-01-21T08:20:36.223Z,-0.68
2023-01-21T08:21:36.202Z,-0.68
2023-01-21T08:22:36.201Z,-0.68
2023-01-21T08:23:36.177Z,-0.67
2023-01-21T08:24:36.209Z,-0.65
2023-01-21T08:25:36.157Z,-0.67
2023-01-21T08:26:36.153Z,-0.67
2023-01-21T08:27:36.151Z,-0.65
2023-01-21T08:28:36.143Z,-0.65
2023-01-21T08:29:36.135Z,-0.63
2023-01-21T08:30:36.122Z,-0.63
2023-01-21T08:31:36.139Z,-0.63
2023-01-21T08:32:36.091Z,-0.63
2023-01-21T08:33:36.089Z,-0.63
2023-01-21T08:34:36.090Z,-0.63
2023-01-21T08:35:36.070Z,-0.62
2023-01-21T08:36:36.044Z,-0.60
2023-01-21T08:37:36.040Z,-0.62
2023-01-21T08:38:36.045Z,-0.59
2023-01-21T08:39:36.044Z,-0.60
2023-01-21T08:40:36.015Z,-0.59
2023-01-21T08:41:35.993Z,-0.60
2023-01-21T08:42:35.994Z,-0.59
2023-01-21T08:43:35.967Z,-0.58
2023-01-21T08:44:35.977Z,-0.58
2023-01-21T08:45:35.979Z,-0.58
2023-01-21T08:46:35.961Z,-0.58
2023-01-21T08:47:35.930Z,-0.56
2023-01-21T08:48:35.928Z,-0.55
2023-01-21T08:49:35.930Z,-0.56
2023-01-21T08:50:35.894Z,-0.55
2023-01-21T08:51:35.898Z,-0.55
2023-01-21T08:52:35.891Z,-0.52
2023-01-21T08:53:35.881Z,-0.52
2023-01-21T08:54:35.887Z,-0.53
2023-01-21T08:55:35.849Z,-0.52
2023-01-21T08:56:35.839Z,-0.52
2023-01-21T08:57:35.848Z,-0.52
2023-01-21T08:58:35.836Z,-0.53
2023-01-21T08:59:35.851Z,-0.55
2023-01-21T09:00:35.953Z,-0.53
2023-01-21T09:01:35.807Z,-0.53
2023-01-21T09:02:35.779Z,-0.53
2023-01-21T09:03:35.779Z,-0.53
2023-01-21T09:04:35.780Z,-0.53
2023-01-21T09:05:35.768Z,-0.52
2023-01-21T09:06:35.732Z,-0.52
2023-01-21T09:07:35.731Z,-0.52
2023-01-21T09:08:35.719Z,-0.50
2023-01-21T09:09:35.725Z,-0.52
2023-01-21T09:10:35.711Z,-0.50
2023-01-21T09:11:35.739Z,-0.52
2023-01-21T09:12:35.696Z,-0.50
2023-01-21T09:13:35.668Z,-0.50
2023-01-21T09:14:35.686Z,-0.50
2023-01-21T09:15:35.645Z,-0.47
2023-01-21T09:16:35.653Z,-0.49
2023-01-21T09:17:35.638Z,-0.49
2023-01-21T09:18:35.641Z,-0.49
2023-01-21T09:19:35.631Z,-0.49
2023-01-21T09:20:35.619Z,-0.49
2023-01-21T09:21:35.589Z,-0.47
2023-01-21T09:22:35.580Z,-0.45
2023-01-21T09:23:35.573Z,-0.45
2023-01-21T09:24:35.564Z,-0.45
2023-01-21T09:25:35.546Z,-0.45
2023-01-21T09:26:35.564Z,-0.45
2023-01-21T09:27:35.528Z,-0.49
2023-01-21T09:28:35.526Z,-0.47
2023-01-21T09:29:35.534Z,-0.47
2023-01-21T09:30:35.534Z,-0.47
2023-01-21T09:31:35.524Z,-0.47
2023-01-21T09:32:35.578Z,-0.49
2023-01-21T09:33:37.654Z,-0.45
2023-01-21T09:34:36.527Z,-0.47
2023-01-21T09:35:39.773Z,-0.45
2023-01-21T09:36:36.250Z,-0.44
2023-01-21T09:37:35.585Z,-0.42
2023-01-21T09:38:35.525Z,-0.42
2023-01-21T09:39:35.441Z,-0.44
2023-01-21T09:40:35.391Z,-0.44
2023-01-21T09:41:35.392Z,-0.42
2023-01-21T09:42:35.387Z,-0.42
2023-01-21T09:43:35.383Z,-0.42
2023-01-21T09:44:35.376Z,-0.44
2023-01-21T09:45:35.371Z,-0.44
2023-01-21T09:46:35.351Z,-0.42
2023-01-21T09:47:35.339Z,-0.42
2023-01-21T09:48:35.311Z,-0.41
2023-01-21T09:49:35.331Z,-0.41
2023-01-21T09:50:35.296Z,-0.41
2023-01-21T09:51:35.283Z,-0.41
2023-01-21T09:52:35.268Z,-0.42
2023-01-21T09:53:35.258Z,-0.42
2023-01-21T09:54:35.274Z,-0.42
2023-01-21T09:55:35.243Z,-0.42
2023-01-21T09:56:35.229Z,-0.41
2023-01-21T09:57:35.224Z,-0.39
2023-01-21T09:58:35.306Z,-0.39
2023-01-21T09:59:35.367Z,-0.39
2023-01-21T10:00:35.199Z,-0.38
2023-01-21T10:01:35.188Z,-0.39
2023-01-21T10:02:35.162Z,-0.39
2023-01-21T10:03:35.159Z,-0.41
2023-01-21T10:04:35.273Z,-0.41
2023-01-21T10:05:35.134Z,-0.42
2023-01-21T10:06:35.154Z,-0.41
2023-01-21T10:07:35.139Z,-0.39
2023-01-21T10:08:35.100Z,-0.39
2023-01-21T10:09:35.113Z,-0.38
2023-01-21T10:10:35.339Z,-0.38
2023-01-21T10:11:35.094Z,-0.39
2023-01-21T10:12:35.057Z,-0.42
2023-01-21T10:13:35.071Z,-0.39
2023-01-21T10:14:35.045Z,-0.38
2023-01-21T10:15:35.052Z,-0.39
2023-01-21T10:16:35.091Z,-0.39
2023-01-21T10:17:35.064Z,-0.38
2023-01-21T10:18:34.998Z,-0.38
2023-01-21T10:19:34.991Z,-0.41
2023-01-21T10:20:35.000Z,-0.41
2023-01-21T10:21:34.995Z,-0.42
2023-01-21T10:22:34.991Z,-0.42
2023-01-21T10:23:34.994Z,-0.41
2023-01-21T10:24:34.934Z,-0.42
2023-01-21T10:25:34.950Z,-0.42
2023-01-21T10:26:34.921Z,-0.42
2023-01-21T10:27:34.909Z,-0.44
2023-01-21T10:28:34.896Z,-0.45
2023-01-21T10:29:34.899Z,-0.45
2023-01-21T10:30:35.046Z,-0.44
2023-01-21T10:31:35.094Z,-0.45
2023-01-21T10:32:34.909Z,-0.44
2023-01-21T10:33:34.847Z,-0.45
2023-01-21T10:34:34.835Z,-0.44
2023-01-21T10:35:34.852Z,-0.45
2023-01-21T10:36:35.449Z,-0.44
2023-01-21T10:37:34.800Z,-0.45
2023-01-21T10:38:35.451Z,-0.47
2023-01-21T10:39:34.815Z,-0.47
2023-01-21T10:40:34.795Z,-0.45
2023-01-21T10:41:34.775Z,-0.47
2023-01-21T10:42:34.749Z,-0.47
2023-01-21T10:43:34.849Z,-0.50
2023-01-21T10:44:34.759Z,-0.50
2023-01-21T10:45:34.752Z,-0.50
2023-01-21T10:46:34.766Z,-0.49
2023-01-21T10:47:34.747Z,-0.50
2023-01-21T10:48:34.706Z,-0.52
2023-01-21T10:49:34.687Z,-0.52
2023-01-21T10:50:34.687Z,-0.52
2023-01-21T10:51:34.673Z,-0.52
2023-01-21T10:52:34.662Z,-0.52
2023-01-21T10:53:34.644Z,-0.52
2023-01-21T10:54:34.642Z,-0.53
2023-01-21T10:55:34.658Z,-0.55
2023-01-21T10:56:34.722Z,-0.55
2023-01-21T10:57:34.600Z,-0.56
2023-01-21T10:58:34.589Z,-0.58
2023-01-21T10:59:34.580Z,-0.58
2023-01-21T11:00:34.606Z,-0.56
2023-01-21T11:01:34.713Z,-0.55
2023-01-21T11:02:34.604Z,-0.50
2023-01-21T11:03:34.545Z,-0.50
2023-01-21T11:04:34.516Z,-0.50
2023-01-21T11:05:34.545Z,-0.50
2023-01-21T11:06:34.522Z,-0.47
2023-01-21T11:07:34.498Z,-0.47
2023-01-21T11:08:34.529Z,-0.47
2023-01-21T11:09:34.489Z,-0.47
2023-01-21T11:10:34.485Z,-0.45
2023-01-21T11:11:34.467Z,-0.44
2023-01-21T11:12:34.470Z,-0.42
2023-01-21T11:13:34.515Z,-0.42
2023-01-21T11:14:34.465Z,-0.41
2023-01-21T11:15:34.480Z,-0.41
2023-01-21T11:16:34.408Z,-0.38
2023-01-21T11:17:34.397Z,-0.38
2023-01-21T11:18:34.378Z,-0.39
2023-01-21T11:19:34.411Z,-0.38
2023-01-21T11:20:34.383Z,-0.37
2023-01-21T11:21:34.363Z,-0.35
2023-01-21T11:22:34.350Z,-0.35
2023-01-21T11:23:34.342Z,-0.32
2023-01-21T11:24:34.341Z,-0.32
2023-01-21T11:25:34.339Z,-0.31
2023-01-21T11:26:34.306Z,-0.31
2023-01-21T11:27:34.310Z,-0.31
2023-01-21T11:28:34.290Z,-0.31
2023-01-21T11:29:34.278Z,-0.30
2023-01-21T11:30:49.553Z,-0.30
2023-01-21T11:31:34.338Z,-0.30
2023-01-21T11:32:34.249Z,-0.27
2023-01-21T11:33:34.245Z,-0.27
2023-01-21T11:34:34.215Z,-0.26
2023-01-21T11:35:34.236Z,-0.24
2023-01-21T11:36:34.214Z,-0.23
2023-01-21T11:37:34.189Z,-0.23
2023-01-21T11:38:34.217Z,-0.23
2023-01-21T11:39:34.174Z,-0.20
2023-01-21T11:40:34.171Z,-0.20
2023-01-21T11:41:34.198Z,-0.20
2023-01-21T11:42:34.135Z,-0.20
2023-01-21T11:43:34.134Z,-0.19
2023-01-21T11:44:34.140Z,-0.17
2023-01-21T11:45:34.183Z,-0.17
2023-01-21T11:46:34.197Z,-0.16
2023-01-21T11:47:36.065Z,-0.14
2023-01-21T11:48:34.123Z,-0.16
2023-01-21T11:49:34.079Z,-0.14
2023-01-21T11:50:34.065Z,-0.13
2023-01-21T11:51:34.060Z,-0.13
2023-01-21T11:52:34.031Z,-0.13
2023-01-21T11:53:34.029Z,-0.13
2023-01-21T11:54:34.009Z,-0.13
2023-01-21T11:55:34.035Z,-0.14
2023-01-21T11:56:33.997Z,-0.17
2023-01-21T11:57:33.993Z,-0.14
2023-01-21T11:58:33.991Z,-0.16
2023-01-21T11:59:34.401Z,-0.14
2023-01-21T12:00:33.984Z,-0.13
2023-01-21T12:01:33.959Z,-0.16
2023-01-21T12:02:33.966Z,-0.16
2023-01-21T12:03:34.026Z,-0.16
2023-01-21T12:04:33.909Z,-0.16
2023-01-21T12:05:33.928Z,-0.16
2023-01-21T12:06:36.682Z,-0.12
2023-01-21T12:07:33.910Z,-0.12
2023-01-21T12:08:33.868Z,-0.13
2023-01-21T12:09:33.858Z,-0.14
2023-01-21T12:10:33.861Z,-0.12
2023-01-21T12:11:33.886Z,-0.12
2023-01-21T12:12:33.834Z,-0.09
2023-01-21T12:13:33.829Z,-0.08
2023-01-21T12:14:33.824Z,-0.08
2023-01-21T12:15:33.819Z,-0.09
2023-01-21T12:16:33.797Z,-0.09
2023-01-21T12:17:33.853Z,-0.09
2023-01-21T12:18:33.789Z,-0.09
2023-01-21T12:19:33.768Z,-0.06
2023-01-21T12:20:33.788Z,-0.08
2023-01-21T12:21:33.755Z,-0.05
2023-01-21T12:22:33.729Z,-0.05
2023-01-21T12:23:33.725Z,-0.06
2023-01-21T12:24:33.713Z,-0.05
2023-01-21T12:25:33.715Z,-0.06
2023-01-21T12:26:33.736Z,-0.05
2023-01-21T12:27:33.694Z,-0.05
2023-01-21T12:28:33.689Z,-0.03
2023-01-21T12:29:33.669Z,-0.05
2023-01-21T12:30:33.769Z,-0.08
2023-01-21T12:31:33.706Z,-0.05
2023-01-21T12:32:33.645Z,-0.06
2023-01-21T12:33:33.632Z,-0.05
2023-01-21T12:34:33.620Z,-0.05
2023-01-21T12:35:33.622Z,-0.03
2023-01-21T12:36:33.583Z,-0.05
2023-01-21T12:37:33.583Z,-0.06
2023-01-21T12:38:33.572Z,-0.05
2023-01-21T12:39:33.574Z,-0.05
2023-01-21T12:40:33.564Z,-0.06
2023-01-21T12:41:33.559Z,-0.06
2023-01-21T12:42:33.519Z,-0.03
2023-01-21T12:43:33.527Z,-0.03
2023-01-21T12:44:33.515Z,-0.03
2023-01-21T12:45:33.490Z,-0.03
2023-01-21T12:46:33.548Z,-0.02
2023-01-21T12:47:33.481Z,-0.03
2023-01-21T12:48:33.456Z,-0.02
2023-01-21T12:49:33.463Z,-0.03
2023-01-21T12:50:33.447Z,-0.03
2023-01-21T12:51:33.463Z,-0.03
2023-01-21T12:52:33.435Z,-0.03